createdAt,value
2023-04-20T00:01:20.570Z,8.01
2023-04-20T00:03:47.190Z,7.99
2023-04-20T00:06:14.086Z,8.01
2023-04-20T00:08:40.688Z,7.99
2023-04-20T00:11:07.226Z,7.98
2023-04-20T00:13:33.800Z,7.95
2023-04-20T00:16:00.594Z,7.91
2023-04-20T00:18:27.167Z,7.90
2023-04-20T00:20:53.785Z,7.92
2023-04-20T00:23:20.564Z,7.91
2023-04-20T00:25:49.675Z,7.84
2023-04-20T00:28:16.292Z,7.80
2023-04-20T00:30:42.879Z,7.81
2023-04-20T00:33:09.443Z,7.83
2023-04-20T00:35:36.053Z,7.81
2023-04-20T00:38:02.603Z,7.75
2023-04-20T00:40:29.279Z,7.70
2023-04-20T00:42:55.868Z,7.65
2023-04-20T00:45:22.590Z,7.63
2023-04-20T00:47:49.308Z,7.63
2023-04-20T00:50:16.183Z,7.52
2023-04-20T00:52:42.927Z,7.38
2023-04-20T00:55:09.772Z,7.27
2023-04-20T00:57:36.504Z,7.31
2023-04-20T01:00:03.736Z,7.25
2023-04-20T01:02:30.424Z,7.23
2023-04-20T01:04:57.131Z,7.07
2023-04-20T01:07:26.010Z,6.95
2023-04-20T01:09:52.596Z,6.96
2023-04-20T01:12:19.174Z,6.97
2023-04-20T01:14:45.734Z,6.96
2023-04-20T01:17:15.103Z,6.93
2023-04-20T01:19:42.120Z,6.88
2023-04-20T01:22:08.648Z,6.80
2023-04-20T01:24:35.190Z,6.80
2023-04-20T01:27:01.794Z,6.72
2023-04-20T01:29:28.426Z,6.67
2023-04-20T01:31:55.164Z,6.51
2023-04-20T01:34:21.730Z,6.40
2023-04-20T01:36:48.355Z,6.39
2023-04-20T01:39:15.085Z,6.31
2023-04-20T01:41:41.879Z,6.30
2023-04-20T01:44:08.448Z,6.31
2023-04-20T01:46:41.712Z,6.28
2023-04-20T01:49:08.864Z,6.28
2023-04-20T01:51:35.896Z,6.27
2023-04-20T01:54:02.953Z,6.34
2023-04-20T01:56:29.564Z,6.38
2023-04-20T01:58:56.167Z,6.41
2023-04-20T02:01:22.809Z,6.46
2023-04-20T02:03:50.011Z,6.48
2023-04-20T02:06:17.089Z,6.50
2023-04-20T02:08:43.749Z,6.52
2023-04-20T02:11:10.333Z,6.55
2023-04-20T02:13:36.921Z,6.53
2023-04-20T02:16:03.613Z,6.54
2023-04-20T02:18:32.319Z,6.55
2023-04-20T02:21:00.917Z,6.56
2023-04-20T02:23:27.809Z,6.56
2023-04-20T02:25:54.549Z,6.57
2023-04-20T02:28:21.093Z,6.60
2023-04-20T02:30:47.679Z,6.61
2023-04-20T02:33:14.356Z,6.57
2023-04-20T02:35:40.917Z,6.57
2023-04-20T02:38:07.502Z,6.48
2023-04-20T02:40:34.035Z,6.45
2023-04-20T02:43:00.614Z,6.45
2023-04-20T02:45:27.151Z,6.40
2023-04-20T02:47:53.811Z,6.38
2023-04-20T02:50:20.936Z,6.30
2023-04-20T02:52:47.518Z,6.30
2023-04-20T02:55:14.296Z,6.36
2023-04-20T02:57:40.902Z,6.41
2023-04-20T03:00:09.087Z,6.50
2023-04-20T03:02:37.596Z,6.57
2023-04-20T03:05:04.696Z,6.55
2023-04-20T03:07:31.591Z,6.58
2023-04-20T03:09:58.138Z,6.65
2023-04-20T03:12:24.809Z,6.70
2023-04-20T03:14:51.827Z,6.72
2023-04-20T03:17:18.383Z,6.73
2023-04-20T03:19:44.959Z,6.66
2023-04-20T03:22:11.929Z,6.66
2023-04-20T03:24:38.451Z,6.63
2023-04-20T03:27:06.257Z,6.62
2023-04-20T03:29:32.823Z,6.58
2023-04-20T03:31:59.436Z,6.54
2023-04-20T03:34:26.791Z,6.52
2023-04-20T03:36:53.458Z,6.52
2023-04-20T03:39:20.184Z,6.38
2023-04-20T03:41:46.849Z,6.30
2023-04-20T03:44:15.132Z,6.23
2023-04-20T03:46:41.660Z,6.20
2023-04-20T03:49:08.237Z,6.20
2023-04-20T03:51:34.785Z,6.17
2023-04-20T03:54:01.419Z,6.16
2023-04-20T03:56:28.515Z,6.17
2023-04-20T03:58:55.090Z,6.15
2023-04-20T04:01:21.696Z,6.14
2023-04-20T04:03:48.624Z,6.13
2023-04-20T04:06:15.611Z,6.16
2023-04-20T04:08:42.137Z,6.15
2023-04-20T04:11:08.777Z,6.18
2023-04-20T04:13:36.465Z,6.17
2023-04-20T04:16:03.138Z,6.23
2023-04-20T04:18:32.531Z,6.23
2023-04-20T04:20:59.552Z,6.23
2023-04-20T04:23:26.401Z,6.20
2023-04-20T04:25:52.968Z,6.20
2023-04-20T04:28:19.776Z,6.10
2023-04-20T04:30:47.432Z,6.11
2023-04-20T04:33:14.841Z,6.08
2023-04-20T04:35:41.701Z,6.07
2023-04-20T04:38:08.631Z,6.08
2023-04-20T04:40:35.907Z,6.07
2023-04-20T04:43:02.756Z,6.12
2023-04-20T04:45:29.507Z,6.17
2023-04-20T04:47:57.243Z,6.19
2023-04-20T04:50:23.932Z,6.22
2023-04-20T04:52:50.561Z,6.23
2023-04-20T04:55:17.264Z,6.25
2023-04-20T04:57:43.809Z,6.29
2023-04-20T05:00:12.462Z,6.39
2023-04-20T05:02:39.460Z,6.47
2023-04-20T05:05:09.405Z,6.51
2023-04-20T05:07:36.358Z,6.53
2023-04-20T05:10:02.965Z,6.57
2023-04-20T05:12:29.592Z,6.66
2023-04-20T05:14:56.156Z,6.79
2023-04-20T05:17:22.722Z,6.88
2023-04-20T05:19:49.335Z,6.95
2023-04-20T05:22:15.890Z,7.03
2023-04-20T05:24:42.599Z,7.12
2023-04-20T05:27:09.582Z,7.21
2023-04-20T05:29:36.378Z,7.32
2023-04-20T05:32:03.122Z,7.38
2023-04-20T05:34:29.997Z,7.44
2023-04-20T05:36:59.207Z,7.51
2023-04-20T05:39:26.431Z,7.62
2023-04-20T05:41:53.053Z,7.73
2023-04-20T05:44:19.568Z,7.83
2023-04-20T05:46:46.246Z,7.96
2023-04-20T05:49:12.816Z,8.09
2023-04-20T05:51:39.368Z,8.19
2023-04-20T05:54:06.164Z,8.28
2023-04-20T05:56:32.790Z,8.41
2023-04-20T05:59:00.071Z,8.56
2023-04-20T06:01:26.667Z,8.69
2023-04-20T06:03:53.485Z,8.84
2023-04-20T06:06:20.076Z,8.98
2023-04-20T06:08:46.668Z,9.11
2023-04-20T06:11:13.255Z,9.24
2023-04-20T06:13:39.838Z,9.44
2023-04-20T06:16:09.558Z,9.63
2023-04-20T06:18:37.262Z,9.82
2023-04-20T06:21:04.516Z,9.96
2023-04-20T06:23:31.479Z,10.08
2023-04-20T06:25:58.069Z,10.19
2023-04-20T06:28:24.714Z,10.31
2023-04-20T06:30:51.333Z,10.47
2023-04-20T06:33:18.058Z,10.57
2023-04-20T06:35:44.751Z,10.69
2023-04-20T06:38:11.427Z,10.83
2023-04-20T06:40:38.140Z,10.98
2023-04-20T06:43:04.732Z,11.09
2023-04-20T06:45:32.906Z,11.24
2023-04-20T06:48:00.748Z,11.35
2023-04-20T06:50:27.425Z,11.46
2023-04-20T06:52:54.052Z,11.57
2023-04-20T06:55:21.069Z,11.73
2023-04-20T06:57:47.661Z,11.85
2023-04-20T07:00:15.112Z,11.99
2023-04-20T07:02:51.537Z,12.11
2023-04-20T07:05:18.630Z,12.21
2023-04-20T07:07:45.681Z,12.26
2023-04-20T07:10:14.192Z,12.32
2023-04-20T07:12:42.821Z,12.37
2023-04-20T07:15:10.888Z,12.44
2023-04-20T07:17:37.522Z,12.56
2023-04-20T07:20:09.074Z,12.63
2023-04-20T07:22:38.959Z,12.71
2023-04-20T07:25:07.925Z,12.83
2023-04-20T07:27:36.641Z,12.95
2023-04-20T07:30:03.973Z,13.06
2023-04-20T07:32:30.596Z,13.13
2023-04-20T07:34:57.223Z,13.31
2023-04-20T07:37:25.814Z,13.44
2023-04-20T07:39:53.825Z,13.51
2023-04-20T07:42:21.569Z,13.59
2023-04-20T07:44:48.623Z,13.69
2023-04-20T07:47:15.439Z,13.82
2023-04-20T07:49:43.349Z,13.93
2023-04-20T07:52:16.941Z,14.03
2023-04-20T07:54:47.508Z,14.12
2023-04-20T07:57:14.109Z,14.27
2023-04-20T07:59:41.315Z,14.39
2023-04-20T08:02:08.732Z,14.46
2023-04-20T08:04:39.046Z,14.61
2023-04-20T08:07:05.877Z,14.77
2023-04-20T08:09:32.707Z,14.84
2023-04-20T08:12:00.348Z,14.95
2023-04-20T08:14:27.098Z,15.11
2023-04-20T08:16:53.729Z,15.22
2023-04-20T08:19:20.460Z,15.36
2023-04-20T08:21:47.020Z,15.49
2023-04-20T08:24:13.751Z,15.63
2023-04-20T08:26:40.848Z,15.70
2023-04-20T08:29:07.488Z,15.81
2023-04-20T08:31:34.272Z,15.91
2023-04-20T08:34:01.370Z,16.01
2023-04-20T08:36:28.179Z,16.13
2023-04-20T08:38:58.625Z,16.26
2023-04-20T08:41:26.402Z,16.35
2023-04-20T08:43:52.976Z,16.50
2023-04-20T08:46:19.978Z,16.63
2023-04-20T08:48:48.607Z,16.78
2023-04-20T08:51:17.208Z,16.88
2023-04-20T08:53:44.172Z,16.97
2023-04-20T08:56:11.170Z,17.11
2023-04-20T08:58:42.212Z,17.24
2023-04-20T09:01:10.559Z,17.36
2023-04-20T09:03:43.037Z,17.46
2023-04-20T09:06:18.403Z,17.58
2023-04-20T09:08:46.500Z,17.68
2023-04-20T09:11:23.786Z,17.80
2023-04-20T09:14:07.346Z,17.95
2023-04-20T09:16:40.119Z,18.10
2023-04-20T09:19:09.251Z,18.24
2023-04-20T09:21:36.417Z,18.36
2023-04-20T09:24:08.177Z,18.46
2023-04-20T09:26:36.265Z,18.57
2023-04-20T09:29:04.311Z,18.63
2023-04-20T09:31:31.051Z,18.72
2023-04-20T09:34:02.904Z,18.83
2023-04-20T09:36:37.353Z,18.85
2023-04-20T09:39:11.544Z,18.96
2023-04-20T09:41:38.733Z,19.11
2023-04-20T09:44:06.254Z,19.23
2023-04-20T09:46:35.085Z,19.27
2023-04-20T09:49:04.346Z,19.39
2023-04-20T09:51:33.450Z,19.54
2023-04-20T09:54:01.759Z,19.60
2023-04-20T09:56:30.613Z,19.75
2023-04-20T09:58:58.207Z,19.89
2023-04-20T10:01:25.592Z,20.03
2023-04-20T10:03:57.577Z,20.12
2023-04-20T10:06:27.738Z,20.19
2023-04-20T10:08:55.383Z,20.29
2023-04-20T10:11:53.829Z,20.41
2023-04-20T10:14:26.154Z,20.46
2023-04-20T10:17:08.836Z,20.55
2023-04-20T10:19:39.109Z,20.74
2023-04-20T10:22:06.912Z,20.93
2023-04-20T10:24:33.580Z,20.86
2023-04-20T10:27:00.536Z,20.89
2023-04-20T10:29:28.821Z,21.00
2023-04-20T10:31:56.140Z,21.12
2023-04-20T10:34:36.314Z,21.21
2023-04-20T10:37:13.402Z,21.41
2023-04-20T10:39:47.227Z,21.57
2023-04-20T10:42:15.481Z,21.63
2023-04-20T10:44:54.586Z,21.76
2023-04-20T10:47:29.836Z,21.86
2023-04-20T10:50:15.650Z,21.91
2023-04-20T10:52:44.671Z,22.06
2023-04-20T10:55:25.009Z,22.22
2023-04-20T10:57:52.316Z,22.35
2023-04-20T11:00:21.736Z,22.50
2023-04-20T11:02:50.416Z,22.48
2023-04-20T11:05:18.881Z,22.56
2023-04-20T11:07:53.669Z,22.55
2023-04-20T11:10:22.060Z,22.66
2023-04-20T11:12:48.976Z,22.85
2023-04-20T11:15:16.410Z,23.06
2023-04-20T11:17:43.136Z,23.27
2023-04-20T11:20:15.472Z,23.48
2023-04-20T11:22:43.430Z,23.53
2023-04-20T11:25:11.956Z,23.58
2023-04-20T11:27:39.616Z,23.59
2023-04-20T11:30:09.076Z,23.52
2023-04-20T11:32:36.234Z,23.65
2023-04-20T11:35:07.812Z,23.91
2023-04-20T11:37:48.103Z,23.84
2023-04-20T11:40:15.327Z,23.97
2023-04-20T11:42:41.948Z,24.10
2023-04-20T11:45:09.151Z,24.16
2023-04-20T11:47:35.732Z,24.19
2023-04-20T11:50:02.292Z,24.31
2023-04-20T11:52:28.899Z,24.36
2023-04-20T11:54:55.487Z,24.50
2023-04-20T11:57:23.886Z,24.60
2023-04-20T11:59:50.633Z,24.61
2023-04-20T12:02:17.515Z,24.73
2023-04-20T12:04:44.328Z,24.88
2023-04-20T12:07:11.035Z,25.00
2023-04-20T12:09:38.434Z,25.02
2023-04-20T12:12:06.148Z,25.02
2023-04-20T12:14:33.727Z,25.19
2023-04-20T12:17:04.569Z,25.34
2023-04-20T12:19:32.102Z,25.51
2023-04-20T12:21:58.745Z,25.54
2023-04-20T12:24:25.351Z,25.64
2023-04-20T12:26:51.969Z,25.40
2023-04-20T12:29:18.656Z,25.13
2023-04-20T12:31:45.456Z,24.99
2023-04-20T12:34:12.328Z,24.90
2023-04-20T12:36:38.926Z,25.07
2023-04-20T12:39:05.630Z,25.38
2023-04-20T12:41:33.215Z,25.43
2023-04-20T12:44:00.762Z,25.48
2023-04-20T12:46:28.808Z,25.69
2023-04-20T12:48:56.196Z,25.83
2023-04-20T12:51:22.813Z,26.04
2023-04-20T12:53:49.416Z,26.25
2023-04-20T12:56:16.014Z,26.11
2023-04-20T12:58:42.581Z,26.33
2023-04-20T13:01:09.958Z,26.78
2023-04-20T13:03:36.802Z,26.98
2023-04-20T13:06:03.668Z,27.12
2023-04-20T13:08:30.440Z,27.32
2023-04-20T13:10:56.987Z,27.49
2023-04-20T13:13:23.525Z,27.49
2023-04-20T13:15:50.151Z,27.72
2023-04-20T13:18:16.750Z,27.63
2023-04-20T13:20:43.316Z,27.95
2023-04-20T13:23:09.947Z,28.59
2023-04-20T13:25:38.656Z,28.17
2023-04-20T13:28:05.612Z,28.79
2023-04-20T13:30:32.725Z,29.49
2023-04-20T13:32:59.400Z,30.09
2023-04-20T13:35:26.319Z,30.31
2023-04-20T13:37:52.888Z,30.80
2023-04-20T13:40:19.448Z,30.16
2023-04-20T13:42:46.080Z,29.52
2023-04-20T13:45:12.683Z,28.55
2023-04-20T13:47:40.389Z,28.08
2023-04-20T13:50:07.750Z,28.31
2023-04-20T13:52:34.726Z,28.40
2023-04-20T13:55:01.349Z,28.74
2023-04-20T13:57:27.966Z,29.27
2023-04-20T13:59:54.538Z,28.76
2023-04-20T14:02:21.405Z,28.53
2023-04-20T14:04:48.151Z,27.92
2023-04-20T14:07:14.809Z,27.70
2023-04-20T14:09:41.518Z,27.54
2023-04-20T14:12:08.193Z,28.21
2023-04-20T14:14:34.760Z,29.13
2023-04-20T14:17:02.022Z,29.45
2023-04-20T14:19:28.643Z,30.55
2023-04-20T14:21:55.376Z,31.32
2023-04-20T14:24:21.939Z,32.06
2023-04-20T14:26:48.571Z,32.74
2023-04-20T14:29:15.743Z,32.72
2023-04-20T14:31:42.404Z,33.22
2023-04-20T14:34:09.593Z,33.15
2023-04-20T14:36:36.235Z,33.37
2023-04-20T14:39:02.819Z,33.53
2023-04-20T14:41:30.659Z,33.90
2023-04-20T14:43:58.328Z,34.05
2023-04-20T14:46:25.057Z,33.98
2023-04-20T14:48:52.256Z,33.28
2023-04-20T14:51:20.814Z,33.67
2023-04-20T14:53:47.382Z,33.86
2023-04-20T14:56:13.955Z,32.87
2023-04-20T14:58:42.353Z,33.71
2023-04-20T15:01:09.086Z,33.69
2023-04-20T15:03:35.939Z,34.31
2023-04-20T15:06:03.599Z,34.20
2023-04-20T15:08:30.704Z,33.90
2023-04-20T15:10:57.504Z,33.17
2023-04-20T15:13:24.713Z,32.49
2023-04-20T15:15:54.185Z,32.66
2023-04-20T15:18:21.736Z,32.90
2023-04-20T15:20:50.451Z,33.24
2023-04-20T15:23:17.251Z,34.19
2023-04-20T15:25:43.949Z,34.52
2023-04-20T15:28:11.224Z,33.99
2023-04-20T15:30:37.904Z,34.44
2023-04-20T15:33:05.491Z,34.54
2023-04-20T15:35:32.893Z,34.74
2023-04-20T15:37:59.524Z,35.03
2023-04-20T15:40:27.354Z,34.63
2023-04-20T15:42:57.684Z,34.09
2023-04-20T15:45:24.621Z,34.17
2023-04-20T15:47:51.713Z,34.43
2023-04-20T15:50:19.080Z,33.67
2023-04-20T15:52:49.652Z,32.26
2023-04-20T15:55:16.760Z,30.87
2023-04-20T15:57:44.495Z,29.46
2023-04-20T16:00:12.213Z,28.46
2023-04-20T16:02:40.122Z,27.99
2023-04-20T16:05:07.754Z,26.97
2023-04-20T16:07:34.444Z,26.22
2023-04-20T16:10:02.177Z,25.73
2023-04-20T16:12:29.146Z,25.09
2023-04-20T16:14:57.108Z,24.48
2023-04-20T16:17:23.866Z,24.10
2023-04-20T16:19:50.471Z,23.62
2023-04-20T16:22:17.237Z,23.31
2023-04-20T16:24:43.780Z,23.05
2023-04-20T16:27:10.462Z,22.73
2023-04-20T16:29:37.055Z,22.52
2023-04-20T16:32:03.656Z,22.34
2023-04-20T16:34:31.595Z,21.99
2023-04-20T16:36:58.642Z,21.70
2023-04-20T16:39:25.330Z,21.58
2023-04-20T16:41:51.938Z,21.50
2023-04-20T16:44:18.745Z,21.25
2023-04-20T16:46:49.857Z,21.18
2023-04-20T16:49:16.666Z,21.08
2023-04-20T16:51:43.372Z,20.99
2023-04-20T16:54:11.538Z,20.87
2023-04-20T16:56:38.521Z,21.17
2023-04-20T16:59:05.355Z,21.39
2023-04-20T17:01:32.151Z,21.53
2023-04-20T17:03:59.828Z,21.33
2023-04-20T17:06:27.465Z,20.72
2023-04-20T17:08:56.012Z,20.33
2023-04-20T17:11:22.622Z,19.96
2023-04-20T17:13:49.349Z,19.81
2023-04-20T17:16:16.056Z,19.68
2023-04-20T17:18:42.675Z,19.69
2023-04-20T17:21:09.234Z,19.71
2023-04-20T17:23:36.083Z,19.45
2023-04-20T17:26:03.148Z,19.28
2023-04-20T17:28:29.803Z,19.13
2023-04-20T17:30:56.371Z,18.92
2023-04-20T17:33:22.973Z,18.78
2023-04-20T17:35:49.560Z,18.74
2023-04-20T17:38:16.136Z,18.59
2023-04-20T17:40:42.760Z,18.64
2023-04-20T17:43:09.445Z,18.59
2023-04-20T17:45:37.098Z,18.50
2023-04-20T17:48:04.091Z,18.41
2023-04-20T17:50:30.768Z,18.45
2023-04-20T17:52:57.385Z,18.23
2023-04-20T17:55:24.050Z,18.15
2023-04-20T17:57:50.986Z,18.13
2023-04-20T18:00:18.705Z,18.04
2023-04-20T18:02:45.437Z,17.89
2023-04-20T18:05:12.187Z,17.85
2023-04-20T18:07:38.757Z,17.83
2023-04-20T18:10:06.023Z,17.82
2023-04-20T18:12:33.619Z,17.89
2023-04-20T18:15:00.766Z,17.82
2023-04-20T18:17:27.528Z,17.73
2023-04-20T18:19:54.154Z,17.62
2023-04-20T18:22:20.931Z,17.42
2023-04-20T18:24:47.498Z,17.50
2023-04-20T18:27:14.068Z,17.61
2023-04-20T18:29:40.625Z,17.53
2023-04-20T18:32:07.178Z,17.50
2023-04-20T18:34:33.768Z,17.41
2023-04-20T18:37:00.425Z,17.41
2023-04-20T18:39:27.064Z,17.33
2023-04-20T18:41:53.674Z,17.27
2023-04-20T18:44:20.855Z,17.16
2023-04-20T18:46:47.805Z,17.06
2023-04-20T18:49:14.464Z,17.04
2023-04-20T18:51:41.043Z,16.99
2023-04-20T18:54:07.679Z,16.97
2023-04-20T18:56:34.271Z,16.94
2023-04-20T18:59:01.583Z,16.90
2023-04-20T19:01:28.634Z,16.85
2023-04-20T19:03:55.660Z,16.85
2023-04-20T19:06:22.584Z,16.83
2023-04-20T19:08:50.937Z,16.80
2023-04-20T19:11:17.765Z,16.74
2023-04-20T19:13:45.315Z,16.66
2023-04-20T19:16:12.773Z,16.59
2023-04-20T19:18:39.683Z,16.59
2023-04-20T19:21:06.768Z,16.56
2023-04-20T19:23:33.648Z,16.50
2023-04-20T19:26:00.410Z,16.45
2023-04-20T19:28:26.957Z,16.42
2023-04-20T19:30:53.682Z,16.38
2023-04-20T19:33:20.888Z,16.34
2023-04-20T19:35:53.562Z,16.31
2023-04-20T19:38:21.533Z,16.34
2023-04-20T19:40:48.578Z,16.37
2023-04-20T19:43:16.931Z,16.37
2023-04-20T19:45:44.127Z,16.34
2023-04-20T19:48:10.912Z,16.29
2023-04-20T19:50:37.512Z,16.23
2023-04-20T19:53:04.107Z,16.25
2023-04-20T19:55:31.039Z,16.10
2023-04-20T19:57:57.628Z,16.04
2023-04-20T20:00:24.251Z,15.96
2023-04-20T20:02:50.898Z,15.92
2023-04-20T20:05:17.663Z,15.92
2023-04-20T20:07:44.364Z,15.91
2023-04-20T20:10:11.113Z,15.88
2023-04-20T20:12:37.698Z,15.87
2023-04-20T20:15:04.863Z,15.83
2023-04-20T20:17:31.662Z,15.65
2023-04-20T20:19:58.342Z,15.64
2023-04-20T20:22:25.234Z,15.62
2023-04-20T20:24:54.219Z,15.59
2023-04-20T20:27:21.256Z,15.57
2023-04-20T20:29:47.974Z,15.45
2023-04-20T20:32:14.699Z,15.37
2023-04-20T20:34:41.634Z,15.34
2023-04-20T20:37:10.305Z,15.25
2023-04-20T20:39:37.467Z,15.13
2023-04-20T20:42:05.383Z,15.04
2023-04-20T20:44:34.258Z,14.99
2023-04-20T20:47:01.102Z,14.97
2023-04-20T20:49:29.208Z,14.92
2023-04-20T20:51:55.960Z,14.85
2023-04-20T20:54:22.557Z,14.79
2023-04-20T20:56:49.195Z,14.69
2023-04-20T20:59:15.840Z,14.62
2023-04-20T21:01:42.570Z,14.59
2023-04-20T21:04:09.305Z,14.58
2023-04-20T21:06:36.167Z,14.57
2023-04-20T21:09:02.776Z,14.44
2023-04-20T21:11:29.408Z,14.39
2023-04-20T21:14:01.511Z,14.28
2023-04-20T21:16:28.671Z,14.21
2023-04-20T21:18:55.334Z,14.18
2023-04-20T21:21:21.928Z,14.09
2023-04-20T21:23:49.773Z,14.01
2023-04-20T21:26:16.491Z,13.96
2023-04-20T21:28:43.032Z,13.93
2023-04-20T21:31:09.676Z,13.91
2023-04-20T21:33:36.517Z,13.88
2023-04-20T21:36:03.125Z,13.84
2023-04-20T21:38:29.672Z,13.78
2023-04-20T21:40:56.222Z,13.75
2023-04-20T21:43:22.768Z,13.69
2023-04-20T21:45:50.853Z,13.69
2023-04-20T21:48:18.129Z,13.61
2023-04-20T21:50:44.691Z,13.60
2023-04-20T21:53:11.273Z,13.53
2023-04-20T21:55:37.839Z,13.48
2023-04-20T21:58:06.671Z,13.40
2023-04-20T22:00:33.246Z,13.33
2023-04-20T22:02:59.969Z,13.30
2023-04-20T22:05:27.841Z,13.20
2023-04-20T22:07:54.414Z,13.15
2023-04-20T22:10:21.183Z,13.10
2023-04-20T22:12:47.859Z,13.08
2023-04-20T22:15:15.023Z,12.99
2023-04-20T22:17:41.653Z,12.95
2023-04-20T22:20:10.313Z,12.85
2023-04-20T22:22:37.810Z,12.80
2023-04-20T22:25:05.316Z,12.68
2023-04-20T22:27:34.028Z,12.61
2023-04-20T22:30:00.870Z,12.59
2023-04-20T22:32:27.714Z,12.54
2023-04-20T22:34:54.371Z,12.51
2023-04-20T22:37:21.067Z,12.50
2023-04-20T22:39:47.621Z,12.44
2023-04-20T22:42:14.177Z,12.35
2023-04-20T22:44:40.882Z,12.24
2023-04-20T22:47:07.654Z,12.18
2023-04-20T22:49:34.974Z,12.11
2023-04-20T22:52:01.732Z,12.03
2023-04-20T22:54:28.335Z,11.91
2023-04-20T22:56:54.892Z,11.86
2023-04-20T22:59:21.570Z,11.75
2023-04-20T23:01:48.325Z,11.62
2023-04-20T23:04:14.996Z,11.53
2023-04-20T23:06:43.869Z,11.47
2023-04-20T23:09:13.285Z,11.45
2023-04-20T23:11:40.540Z,11.43
2023-04-20T23:14:08.671Z,11.40
2023-04-20T23:16:35.950Z,11.43
2023-04-20T23:19:02.627Z,11.46
2023-04-20T23:21:29.233Z,11.41
2023-04-20T23:23:58.986Z,11.41
2023-04-20T23:26:25.554Z,11.38
2023-04-20T23:28:53.446Z,11.34
2023-04-20T23:31:20.709Z,11.32
2023-04-20T23:33:48.207Z,11.34
2023-04-20T23:36:14.922Z,11.36
2023-04-20T23:38:42.016Z,11.32
2023-04-20T23:41:12.662Z,11.32
2023-04-20T23:43:39.899Z,11.21
2023-04-20T23:46:07.295Z,11.08
2023-04-20T23:48:34.686Z,11.06
2023-04-20T23:51:01.750Z,10.95
2023-04-20T23:53:28.505Z,10.90
2023-04-20T23:55:59.907Z,10.82
2023-04-20T23:58:28.274Z,10.77
